createdAt,value
2022-12-16T00:04:13.712Z,18.50
2022-12-16T00:09:41.711Z,19.50
2022-12-16T00:15:05.688Z,22.47
2022-12-16T00:20:30.692Z,21.65
2022-12-16T00:25:59.739Z,20.53
2022-12-16T00:31:24.775Z,23.40
2022-12-16T00:36:49.775Z,20.23
2022-12-16T00:42:17.749Z,20.10
2022-12-16T00:47:44.023Z,19.20
2022-12-16T00:53:09.719Z,18.27
2022-12-16T00:58:36.757Z,17.90
2022-12-16T01:04:07.738Z,18.87
2022-12-16T01:14:59.748Z,19.03
2022-12-16T01:20:25.698Z,17.67
2022-12-16T01:25:51.725Z,16.80
2022-12-16T01:31:19.798Z,19.90
2022-12-16T01:36:43.781Z,18.00
2022-12-16T01:42:08.754Z,19.17
2022-12-16T01:47:41.768Z,18.77
2022-12-16T01:53:12.747Z,17.90
2022-12-16T02:04:16.732Z,20.63
2022-12-16T02:09:41.734Z,25.20
2022-12-16T02:15:28.754Z,31.00
2022-12-16T02:21:21.752Z,27.53
2022-12-16T02:27:24.780Z,20.00
2022-12-16T02:33:03.758Z,26.73
2022-12-16T02:38:38.748Z,24.73
2022-12-16T02:44:07.741Z,23.67
2022-12-16T02:50:04.822Z,22.20
2022-12-16T02:55:31.767Z,21.52
2022-12-16T03:01:06.884Z,21.50
2022-12-16T03:06:36.771Z,20.50
2022-12-16T03:12:02.796Z,22.80
2022-12-16T03:17:29.774Z,28.75
2022-12-16T03:22:59.738Z,23.30
2022-12-16T03:28:36.760Z,18.10
2022-12-16T03:34:05.784Z,21.60
2022-12-16T03:39:34.766Z,20.23
2022-12-16T03:44:59.794Z,25.13
2022-12-16T03:50:24.748Z,25.47
2022-12-16T03:55:51.761Z,25.77
2022-12-16T04:01:16.791Z,23.83
2022-12-16T04:06:35.787Z,24.77
2022-12-16T04:12:18.864Z,21.90
2022-12-16T04:17:56.836Z,27.23
2022-12-16T04:23:35.178Z,30.47
2022-12-16T04:29:02.789Z,31.10
2022-12-16T04:34:36.810Z,27.73
2022-12-16T04:40:13.796Z,24.37
2022-12-16T04:45:53.817Z,24.08
2022-12-16T04:51:31.796Z,25.47
2022-12-16T04:57:09.798Z,26.03
2022-12-16T05:02:49.924Z,24.67
2022-12-16T05:08:26.764Z,29.07
2022-12-16T05:14:03.787Z,23.30
2022-12-16T05:19:43.777Z,21.83
2022-12-16T05:25:20.795Z,27.87
2022-12-16T05:30:57.809Z,26.57
2022-12-16T05:36:37.846Z,35.00
2022-12-16T05:42:14.811Z,33.33
2022-12-16T05:47:51.777Z,29.17
2022-12-16T05:53:32.133Z,26.77
2022-12-16T05:59:09.807Z,30.73
2022-12-16T06:04:53.781Z,32.60
2022-12-16T06:10:33.790Z,38.87
2022-12-16T06:16:16.841Z,50.93
2022-12-16T06:21:53.820Z,50.60
2022-12-16T06:27:33.814Z,46.83
2022-12-16T06:33:10.804Z,46.20
2022-12-16T06:38:47.873Z,45.73
2022-12-16T06:44:27.800Z,49.90
2022-12-16T06:50:04.813Z,45.20
2022-12-16T06:55:42.821Z,40.70
2022-12-16T07:01:22.887Z,46.07
2022-12-16T07:06:59.851Z,39.80
2022-12-16T07:12:36.828Z,42.43
2022-12-16T07:18:16.806Z,41.60
2022-12-16T07:23:53.833Z,36.77
2022-12-16T07:29:31.827Z,34.07
2022-12-16T07:35:14.826Z,29.40
2022-12-16T07:40:52.860Z,28.97
2022-12-16T07:46:31.181Z,28.40
2022-12-16T07:52:10.855Z,29.00
2022-12-16T07:57:47.832Z,28.43
2022-12-16T08:03:35.171Z,28.53
2022-12-16T08:09:14.869Z,29.47
2022-12-16T08:14:51.898Z,33.97
2022-12-16T08:20:31.854Z,34.83
2022-12-16T08:26:11.909Z,29.90
2022-12-16T08:31:50.847Z,32.63
2022-12-16T08:37:27.913Z,33.93
2022-12-16T08:43:12.605Z,35.37
2022-12-16T08:48:49.883Z,31.40
2022-12-16T08:54:27.861Z,33.23
2022-12-16T09:00:07.844Z,32.53
2022-12-16T09:05:51.859Z,32.90
2022-12-16T09:11:28.894Z,35.00
2022-12-16T09:17:08.956Z,31.53
2022-12-16T09:22:45.894Z,33.80
2022-12-16T09:28:22.883Z,34.10
2022-12-16T09:34:02.888Z,32.10
2022-12-16T09:39:39.879Z,33.30
2022-12-16T09:45:25.889Z,32.40
2022-12-16T09:51:15.933Z,35.67
2022-12-16T09:56:56.137Z,32.93
2022-12-16T10:02:40.028Z,32.93
2022-12-16T10:08:30.903Z,30.33
2022-12-16T10:14:26.902Z,29.92
2022-12-16T10:20:12.891Z,30.10
2022-12-16T10:25:57.898Z,30.33
2022-12-16T10:31:38.981Z,28.27
2022-12-16T10:37:21.114Z,26.08
2022-12-16T10:43:10.896Z,25.77
2022-12-16T10:48:57.064Z,28.10
2022-12-16T10:54:46.940Z,27.40
2022-12-16T11:00:43.961Z,27.08
2022-12-16T11:06:22.887Z,25.10
2022-12-16T11:12:00.894Z,25.00
2022-12-16T11:17:45.905Z,27.73
2022-12-16T11:23:38.093Z,24.75
2022-12-16T11:29:31.900Z,22.23
2022-12-16T11:35:20.945Z,24.33
2022-12-16T11:40:59.938Z,24.35
2022-12-16T11:46:41.986Z,23.67
2022-12-16T11:52:40.215Z,23.25
2022-12-16T11:58:25.901Z,21.60
2022-12-16T12:04:14.995Z,22.75
2022-12-16T12:10:02.903Z,21.77
2022-12-16T12:15:52.915Z,22.58
2022-12-16T12:21:41.915Z,20.25
2022-12-16T12:27:30.923Z,20.77
2022-12-16T12:33:18.943Z,20.90
2022-12-16T12:39:02.938Z,21.00
2022-12-16T12:44:53.929Z,21.48
2022-12-16T12:50:37.906Z,23.10
2022-12-16T12:56:26.951Z,22.80
2022-12-16T13:02:12.009Z,24.52
2022-12-16T13:07:53.931Z,21.60
2022-12-16T13:14:04.924Z,22.70
2022-12-16T13:20:04.996Z,20.58
2022-12-16T13:26:01.938Z,22.42
2022-12-16T13:31:40.980Z,19.48
2022-12-16T13:37:33.918Z,19.67
2022-12-16T13:43:18.181Z,19.27
2022-12-16T13:49:07.228Z,20.48
2022-12-16T13:54:52.924Z,19.85
2022-12-16T14:00:36.431Z,19.98
2022-12-16T14:06:24.016Z,21.38
2022-12-16T14:12:11.950Z,20.33
2022-12-16T14:17:54.934Z,20.60
2022-12-16T14:23:57.743Z,21.80
2022-12-16T14:30:00.965Z,22.02
2022-12-16T14:35:41.034Z,23.05
2022-12-16T14:41:20.937Z,23.65
2022-12-16T14:47:02.963Z,22.92
2022-12-16T14:52:45.944Z,24.55
2022-12-16T14:58:24.933Z,23.23
2022-12-16T15:04:14.120Z,25.70
2022-12-16T15:09:55.928Z,24.23
2022-12-16T15:15:37.978Z,25.70
2022-12-16T15:21:17.945Z,25.33
2022-12-16T15:26:56.996Z,25.02
2022-12-16T15:32:52.950Z,27.70
2022-12-16T15:38:39.974Z,24.23
2022-12-16T15:44:23.948Z,27.00
2022-12-16T15:50:04.617Z,24.63
2022-12-16T15:55:52.003Z,24.70
2022-12-16T16:01:30.069Z,26.63
2022-12-16T16:07:19.032Z,26.83
2022-12-16T16:12:59.004Z,29.20
2022-12-16T16:18:38.960Z,32.63
2022-12-16T16:24:15.949Z,34.63
2022-12-16T16:29:55.963Z,29.02
2022-12-16T16:35:32.991Z,28.08
2022-12-16T16:41:11.986Z,28.88
2022-12-16T16:47:00.140Z,28.63
2022-12-16T16:52:41.985Z,30.15
2022-12-16T16:58:20.990Z,30.30
2022-12-16T17:04:08.058Z,31.17
2022-12-16T17:09:44.981Z,32.80
2022-12-16T17:15:28.970Z,31.93
2022-12-16T17:21:08.984Z,32.23
2022-12-16T17:26:47.018Z,35.47
2022-12-16T17:32:26.981Z,34.50
2022-12-16T17:38:07.040Z,32.77
2022-12-16T17:43:43.999Z,40.73
2022-12-16T17:49:21.999Z,47.67
2022-12-16T17:55:01.984Z,63.23
2022-12-16T18:00:40.005Z,58.97
2022-12-16T18:06:17.988Z,53.00
2022-12-16T18:11:57.989Z,47.47
2022-12-16T18:17:35.017Z,49.20
2022-12-16T18:23:11.983Z,42.88
2022-12-16T18:28:53.996Z,35.43
2022-12-16T18:34:30.989Z,35.63
2022-12-16T18:40:14.995Z,34.70
2022-12-16T18:45:55.082Z,36.47
2022-12-16T18:51:32.994Z,37.33
2022-12-16T18:57:10.016Z,35.40
2022-12-16T19:02:50.175Z,35.97
2022-12-16T19:08:27.980Z,37.27
2022-12-16T19:14:04.989Z,37.00
2022-12-16T19:19:45.007Z,35.50
2022-12-16T19:25:21.999Z,34.88
2022-12-16T19:30:59.078Z,37.13
2022-12-16T19:36:41.605Z,37.92
2022-12-16T19:42:22.042Z,48.05
2022-12-16T19:47:59.053Z,45.20
2022-12-16T19:53:39.009Z,52.33
2022-12-16T19:59:18.035Z,45.75
2022-12-16T20:04:56.281Z,43.35
2022-12-16T20:10:37.066Z,45.97
2022-12-16T20:16:21.041Z,37.85
2022-12-16T20:22:00.680Z,39.03
2022-12-16T20:27:44.097Z,37.63
2022-12-16T20:33:22.126Z,37.38
2022-12-16T20:38:59.089Z,35.45
2022-12-16T20:44:39.024Z,37.03
2022-12-16T20:50:16.030Z,38.28
2022-12-16T20:55:53.024Z,36.83
2022-12-16T21:01:36.112Z,39.67
2022-12-16T21:07:13.142Z,36.85
2022-12-16T21:12:50.073Z,32.85
2022-12-16T21:18:30.041Z,33.92
2022-12-16T21:24:08.025Z,33.10
2022-12-16T21:29:46.055Z,32.47
2022-12-16T21:35:19.035Z,34.45
2022-12-16T21:40:56.183Z,31.73
2022-12-16T21:46:34.082Z,34.03
2022-12-16T21:52:14.068Z,35.33
2022-12-16T21:57:51.024Z,34.83
2022-12-16T22:03:30.058Z,38.22
2022-12-16T22:09:10.101Z,39.25
2022-12-16T22:14:54.080Z,39.28
2022-12-16T22:20:40.061Z,37.88
2022-12-16T22:26:25.058Z,40.03
2022-12-16T22:32:08.060Z,39.28
2022-12-16T22:37:45.125Z,35.75
2022-12-16T22:43:25.035Z,36.00
2022-12-16T22:49:02.063Z,40.10
2022-12-16T22:54:39.103Z,40.45
2022-12-16T23:00:19.057Z,38.80
2022-12-16T23:05:57.123Z,41.40
2022-12-16T23:11:35.095Z,41.67
2022-12-16T23:17:15.075Z,36.28
2022-12-16T23:22:53.073Z,40.90
2022-12-16T23:28:33.063Z,40.30
2022-12-16T23:34:13.089Z,35.35
2022-12-16T23:39:50.126Z,42.28
2022-12-16T23:45:27.120Z,40.75
2022-12-16T23:51:07.131Z,36.33
2022-12-16T23:56:45.111Z,39.25
